Time;durP1;ratioP1;P1;durP2;ratioP2;P2;SDS_P1;SDS_P2;PMS_P1;PMS_P2;Temp;Humidity;BMP_temperature;BMP_pressure;BME280_temperature;BME280_humidity;BME280_pressure;Samples;Min_cycle;Max_cycle;Signal;HPM_P1;HPM_P2
2022/04/08 00:07:40;;;;;;;;;0.00;0.00;;;;;;;;2;279081794;279081794;-80
2022/04/08 00:15:55;;;;;;;;;0.00;0.00;;;;;;;;2;234069716;234069716;-80
2022/04/08 00:24:57;;;;;;;;;0.00;0.00;;;;;;;;2;279084687;279084687;-80
2022/04/08 00:33:12;;;;;;;;;1.50;1.50;;;;;;;;2;234068020;234068020;-80
2022/04/08 00:42:13;;;;;;;;;0.00;0.00;;;;;;;;2;279085901;279085901;-78
2022/04/08 00:50:29;;;;;;;;;0.00;0.00;;;;;;;;2;234068430;234068430;-78
2022/04/08 00:59:29;;;;;;;;;0.50;0.50;;;;;;;;2;279082639;279082639;-78
2022/04/08 01:07:45;;;;;;;;;0.00;0.00;;;;;;;;2;234068634;234068634;-78
2022/04/08 01:16:45;;;;;;;;;0.00;0.00;;;;;;;;2;279082892;279082892;-79
2022/04/08 01:25:02;;;;;;;;;0.50;0.50;;;;;;;;2;234076180;234076180;-79
2022/04/08 01:34:02;;;;;;;;;0.00;0.00;;;;;;;;2;279081768;279081768;-79
2022/04/08 01:42:22;;;;;;;;;0.00;0.00;;;;;;;;2;234069925;234069925;-79
2022/04/08 01:51:23;;;;;;;;;0.50;0.50;;;;;;;;2;279082303;279082303;-79
2022/04/08 01:59:39;;;;;;;;;3.00;0.50;;;;;;;;2;234067407;234067407;-78
2022/04/08 02:08:39;;;;;;;;;0.00;0.00;;;;;;;;2;279079373;279079373;-79
2022/04/08 02:16:55;;;;;;;;;0.00;0.00;;;;;;;;2;234068621;234068621;-79
2022/04/08 02:25:55;;;;;;;;;1.00;1.00;;;;;;;;2;279081410;279081410;-79
2022/04/08 02:34:11;;;;;;;;;0.50;0.50;;;;;;;;2;234065926;234065926;-79
2022/04/08 02:43:11;;;;;;;;;0.00;0.00;;;;;;;;2;279080459;279080459;-79
2022/04/08 02:51:28;;;;;;;;;2.00;2.00;;;;;;;;2;234072055;234072055;-79
2022/04/08 03:00:29;;;;;;;;;4.00;0.00;;;;;;;;2;279084077;279084077;-79
2022/04/08 03:08:44;;;;;;;;;1.50;1.50;;;;;;;;2;234068603;234068603;-78
2022/04/08 03:17:46;;;;;;;;;0.00;0.00;;;;;;;;2;279083506;279083506;-80
2022/04/08 03:26:01;;;;;;;;;0.00;0.00;;;;;;;;2;234069683;234069683;-79
2022/04/08 03:35:02;;;;;;;;;0.00;0.00;;;;;;;;2;279083078;279083078;-81
2022/04/08 03:43:18;;;;;;;;;0.50;0.50;;;;;;;;2;234072059;234072059;-80
2022/04/08 03:52:18;;;;;;;;;12.00;0.00;;;;;;;;2;279081785;279081785;-79
2022/04/08 04:00:34;;;;;;;;;1.00;1.00;;;;;;;;2;234067299;234067299;-80
2022/04/08 04:09:34;;;;;;;;;1.00;1.00;;;;;;;;2;279083055;279083055;-79
2022/04/08 04:17:50;;;;;;;;;0.50;0.50;;;;;;;;2;234070725;234070725;-78
2022/04/08 04:26:50;;;;;;;;;0.00;0.00;;;;;;;;2;279082014;279082014;-79
2022/04/08 04:35:06;;;;;;;;;9.00;0.00;;;;;;;;2;234068406;234068406;-79
2022/04/08 04:44:07;;;;;;;;;0.00;0.00;;;;;;;;2;279082435;279082435;-80
2022/04/08 04:52:22;;;;;;;;;0.00;0.00;;;;;;;;2;234067863;234067863;-79
2022/04/08 05:01:23;;;;;;;;;0.00;0.00;;;;;;;;2;279083054;279083054;-77
2022/04/08 05:09:38;;;;;;;;;0.00;0.00;;;;;;;;2;234074154;234074154;-80
2022/04/08 05:18:39;;;;;;;;;0.00;0.00;;;;;;;;2;279081969;279081969;-81
2022/04/08 05:26:54;;;;;;;;;13.50;1.50;;;;;;;;2;234076390;234076390;-78
2022/04/08 05:35:55;;;;;;;;;11.50;0.00;;;;;;;;2;279082651;279082651;-78
2022/04/08 05:44:10;;;;;;;;;0.00;0.00;;;;;;;;2;234071543;234071543;-81
2022/04/08 05:53:10;;;;;;;;;0.50;0.50;;;;;;;;2;279082980;279082980;-79
2022/04/08 06:01:26;;;;;;;;;16.50;4.50;;;;;;;;2;234071676;234071676;-78
2022/04/08 06:10:26;;;;;;;;;11.00;7.00;;;;;;;;2;279084825;279084825;-78
2022/04/08 06:18:42;;;;;;;;;1.50;1.50;;;;;;;;2;234067692;234067692;-79
2022/04/08 06:27:44;;;;;;;;;6.00;1.00;;;;;;;;2;279081518;279081518;-78
2022/04/08 06:36:00;;;;;;;;;3.00;3.00;;;;;;;;2;234075506;234075506;-80
2022/04/08 06:45:01;;;;;;;;;0.00;0.00;;;;;;;;2;279081487;279081487;-84
2022/04/08 06:53:16;;;;;;;;;0.00;0.00;;;;;;;;2;234070399;234070399;-83
2022/04/08 07:02:17;;;;;;;;;2.00;2.00;;;;;;;;2;279082961;279082961;-85
2022/04/08 07:10:33;;;;;;;;;2.00;2.00;;;;;;;;2;234069748;234069748;-85
2022/04/08 07:19:34;;;;;;;;;2.50;2.50;;;;;;;;2;279079937;279079937;-84
2022/04/08 07:27:50;;;;;;;;;2.50;2.50;;;;;;;;2;234068566;234068566;-85
2022/04/08 07:36:51;;;;;;;;;2.00;2.00;;;;;;;;2;279077055;279077055;-82
2022/04/08 07:45:07;;;;;;;;;2.00;2.00;;;;;;;;2;234068558;234068558;-83
2022/04/08 07:54:07;;;;;;;;;1.50;1.50;;;;;;;;2;279082639;279082639;-83
2022/04/08 08:02:23;;;;;;;;;0.00;0.00;;;;;;;;2;234069620;234069620;-83
2022/04/08 08:11:24;;;;;;;;;2.50;2.50;;;;;;;;2;279083141;279083141;-83
2022/04/08 08:19:39;;;;;;;;;5.50;1.50;;;;;;;;2;234067802;234067802;-83
2022/04/08 08:28:40;;;;;;;;;1.00;1.00;;;;;;;;2;279084008;279084008;-82
2022/04/08 08:36:59;;;;;;;;;1.00;1.00;;;;;;;;2;234070196;234070196;-82
2022/04/08 08:46:01;;;;;;;;;2.00;2.00;;;;;;;;2;279081852;279081852;-83
2022/04/08 08:54:16;;;;;;;;;13.00;1.00;;;;;;;;2;234069965;234069965;-84
2022/04/08 09:03:17;;;;;;;;;2.00;2.00;;;;;;;;2;279080853;279080853;-88
2022/04/08 09:11:32;;;;;;;;;1.00;1.00;;;;;;;;2;234069765;234069765;-84
2022/04/08 09:20:45;;;;;;;;;4.50;4.50;;;;;;;;2;279082584;279082584;-84
2022/04/08 09:29:01;;;;;;;;;2.00;2.00;;;;;;;;2;234069093;234069093;-82
2022/04/08 09:38:02;;;;;;;;;0.00;0.00;;;;;;;;2;279085018;279085018;-82
2022/04/08 09:46:17;;;;;;;;;0.00;0.00;;;;;;;;2;234070266;234070266;-82
2022/04/08 09:55:18;;;;;;;;;1.00;1.00;;;;;;;;2;279085581;279085581;-83
2022/04/08 10:06:52;;;;;;;;;2.00;2.00;;;;;;;;2;234069239;234069239;-90
2022/04/08 10:16:07;;;;;;;;;0.00;0.00;;;;;;;;2;279075252;279075252;-90
2022/04/08 10:25:02;;;;;;;;;0.50;0.50;;;;;;;;2;234065087;234065087;-80
2022/04/08 10:34:02;;;;;;;;;1.00;1.00;;;;;;;;2;279080522;279080522;-84
2022/04/08 10:42:21;;;;;;;;;2.00;2.00;;;;;;;;2;234067333;234067333;-82
2022/04/08 10:51:22;;;;;;;;;4.00;4.00;;;;;;;;2;279084142;279084142;-81
2022/04/08 10:59:37;;;;;;;;;3.00;1.50;;;;;;;;2;234075066;234075066;-81
2022/04/08 11:08:38;;;;;;;;;11.00;7.00;;;;;;;;2;279081813;279081813;-80
2022/04/08 11:16:53;;;;;;;;;7.00;7.00;;;;;;;;2;234074276;234074276;-82
2022/04/08 11:25:54;;;;;;;;;17.50;13.50;;;;;;;;2;279081708;279081708;-81
2022/04/08 11:34:10;;;;;;;;;5.50;5.50;;;;;;;;2;234070151;234070151;-83
2022/04/08 11:43:17;;;;;;;;;6.00;6.00;;;;;;;;2;279082056;279082056;-81
2022/04/08 11:51:32;;;;;;;;;6.50;6.50;;;;;;;;2;234069438;234069438;-80
2022/04/08 12:00:34;;;;;;;;;2.00;2.00;;;;;;;;2;279080889;279080889;-80
2022/04/08 12:08:50;;;;;;;;;18.00;6.00;;;;;;;;2;234069950;234069950;-80
2022/04/08 12:17:50;;;;;;;;;6.50;6.50;;;;;;;;2;279081450;279081450;-78
2022/04/08 12:26:06;;;;;;;;;6.00;6.00;;;;;;;;2;234067497;234067497;-79
2022/04/08 12:35:08;;;;;;;;;12.50;8.00;;;;;;;;2;279079109;279079109;-79
2022/04/08 12:43:23;;;;;;;;;6.00;6.00;;;;;;;;2;234067072;234067072;-80
2022/04/08 12:52:24;;;;;;;;;8.00;8.00;;;;;;;;2;279082696;279082696;-81
2022/04/08 13:00:39;;;;;;;;;28.50;12.50;;;;;;;;2;234068539;234068539;-81
2022/04/08 13:09:40;;;;;;;;;8.50;8.50;;;;;;;;2;279079418;279079418;-80
2022/04/08 13:17:57;;;;;;;;;15.50;3.50;;;;;;;;2;234066651;234066651;-78
2022/04/08 13:26:58;;;;;;;;;4.50;4.50;;;;;;;;2;279080384;279080384;-79
2022/04/08 13:35:13;;;;;;;;;5.50;5.50;;;;;;;;2;234067338;234067338;-78
2022/04/08 13:44:17;;;;;;;;;2.50;2.50;;;;;;;;2;279079157;279079157;-79
2022/04/08 13:52:33;;;;;;;;;6.50;6.50;;;;;;;;2;234068265;234068265;-78
2022/04/08 14:01:33;;;;;;;;;2.50;2.50;;;;;;;;2;279083153;279083153;-79
2022/04/08 14:09:49;;;;;;;;;5.00;5.00;;;;;;;;2;234070420;234070420;-78
2022/04/08 14:18:50;;;;;;;;;3.50;3.50;;;;;;;;2;279084722;279084722;-80
2022/04/08 14:27:05;;;;;;;;;2.50;2.50;;;;;;;;2;234068460;234068460;-78
2022/04/08 14:36:06;;;;;;;;;2.50;2.50;;;;;;;;2;279077672;279077672;-78
2022/04/08 14:44:24;;;;;;;;;24.50;5.00;;;;;;;;2;234071408;234071408;-78
2022/04/08 14:53:24;;;;;;;;;5.00;5.00;;;;;;;;2;279082752;279082752;-78
2022/04/08 15:01:40;;;;;;;;;3.50;3.50;;;;;;;;2;234068377;234068377;-78
2022/04/08 15:10:40;;;;;;;;;7.00;7.00;;;;;;;;2;279077270;279077270;-78
2022/04/08 15:18:56;;;;;;;;;2.00;0.50;;;;;;;;2;234069668;234069668;-78
2022/04/08 15:27:56;;;;;;;;;2.50;2.50;;;;;;;;2;279083383;279083383;-77
2022/04/08 15:36:12;;;;;;;;;1.50;1.50;;;;;;;;2;234068361;234068361;-78
2022/04/08 15:45:12;;;;;;;;;0.50;0.50;;;;;;;;2;279083871;279083871;-77
2022/04/08 15:53:28;;;;;;;;;1.50;1.50;;;;;;;;2;234070733;234070733;-78
2022/04/08 16:02:29;;;;;;;;;1.00;1.00;;;;;;;;2;279083684;279083684;-78
2022/04/08 16:10:44;;;;;;;;;0.50;0.50;;;;;;;;2;234072109;234072109;-78
2022/04/08 16:19:45;;;;;;;;;1.50;1.50;;;;;;;;2;279081092;279081092;-79
2022/04/08 16:28:00;;;;;;;;;1.00;1.00;;;;;;;;2;234070708;234070708;-80
2022/04/08 16:37:00;;;;;;;;;3.00;3.00;;;;;;;;2;279082108;279082108;-80
2022/04/08 16:45:16;;;;;;;;;0.50;0.50;;;;;;;;2;234069147;234069147;-80
2022/04/08 16:54:18;;;;;;;;;0.00;0.00;;;;;;;;2;279082393;279082393;-80
2022/04/08 17:02:33;;;;;;;;;0.00;0.00;;;;;;;;2;234075104;234075104;-79
2022/04/08 17:11:34;;;;;;;;;0.50;0.50;;;;;;;;2;279087503;279087503;-79
2022/04/08 17:19:50;;;;;;;;;1.00;1.00;;;;;;;;2;234077402;234077402;-80
2022/04/08 17:28:51;;;;;;;;;2.50;2.50;;;;;;;;2;279084891;279084891;-78
2022/04/08 17:37:07;;;;;;;;;3.00;3.00;;;;;;;;2;234073958;234073958;-78
2022/04/08 17:46:08;;;;;;;;;2.00;2.00;;;;;;;;2;279083937;279083937;-77
2022/04/08 17:54:23;;;;;;;;;4.00;4.00;;;;;;;;2;234070667;234070667;-77
2022/04/08 18:03:25;;;;;;;;;11.50;11.50;;;;;;;;2;279083476;279083476;-78
2022/04/08 18:11:40;;;;;;;;;25.00;20.00;;;;;;;;2;234072698;234072698;-78
2022/04/08 18:20:41;;;;;;;;;20.00;12.00;;;;;;;;2;279083959;279083959;-76
2022/04/08 18:28:56;;;;;;;;;8.00;8.00;;;;;;;;2;234074447;234074447;-77
2022/04/08 18:37:57;;;;;;;;;9.50;9.50;;;;;;;;2;279084425;279084425;-77
2022/04/08 18:46:13;;;;;;;;;62.50;46.50;;;;;;;;2;234068869;234068869;-76
2022/04/08 18:55:13;;;;;;;;;11.50;11.50;;;;;;;;2;279086510;279086510;-77
2022/04/08 19:03:29;;;;;;;;;18.00;18.00;;;;;;;;2;234075718;234075718;-77
2022/04/08 19:12:29;;;;;;;;;12.00;8.00;;;;;;;;2;279088250;279088250;-77
2022/04/08 19:20:45;;;;;;;;;4.50;4.50;;;;;;;;2;234070501;234070501;-78
2022/04/08 19:29:45;;;;;;;;;6.50;6.50;;;;;;;;2;279086352;279086352;-78
2022/04/08 19:38:01;;;;;;;;;10.00;10.00;;;;;;;;2;234077404;234077404;-78
2022/04/08 19:47:04;;;;;;;;;17.50;17.50;;;;;;;;2;279090309;279090309;-80
2022/04/08 19:55:19;;;;;;;;;16.00;16.00;;;;;;;;2;234077989;234077989;-76
2022/04/08 20:04:20;;;;;;;;;9.00;9.00;;;;;;;;2;279086630;279086630;-76
2022/04/08 20:12:35;;;;;;;;;10.00;10.00;;;;;;;;2;234070198;234070198;-74
2022/04/08 20:21:36;;;;;;;;;8.00;8.00;;;;;;;;2;279088200;279088200;-75
2022/04/08 20:29:51;;;;;;;;;14.50;14.50;;;;;;;;2;234073714;234073714;-75
2022/04/08 20:38:54;;;;;;;;;6.50;6.50;;;;;;;;2;279088598;279088598;-76
2022/04/08 20:47:10;;;;;;;;;6.50;6.50;;;;;;;;2;234070912;234070912;-76
2022/04/08 20:56:10;;;;;;;;;10.00;10.00;;;;;;;;2;279086721;279086721;-76
2022/04/08 21:04:26;;;;;;;;;20.00;11.00;;;;;;;;2;234071368;234071368;-75
2022/04/08 21:13:26;;;;;;;;;12.50;6.00;;;;;;;;2;279081901;279081901;-76
2022/04/08 21:21:42;;;;;;;;;6.50;6.50;;;;;;;;2;234069818;234069818;-76
2022/04/08 21:30:44;;;;;;;;;3.00;3.00;;;;;;;;2;279083854;279083854;-76
2022/04/08 21:38:59;;;;;;;;;6.50;6.50;;;;;;;;2;234073509;234073509;-76
2022/04/08 21:47:59;;;;;;;;;14.50;5.50;;;;;;;;2;279082161;279082161;-73
2022/04/08 21:56:16;;;;;;;;;4.50;4.50;;;;;;;;2;234069440;234069440;-73
2022/04/08 22:05:17;;;;;;;;;4.00;4.00;;;;;;;;2;279084093;279084093;-75
2022/04/08 22:13:33;;;;;;;;;6.50;6.50;;;;;;;;2;234074508;234074508;-76
2022/04/08 22:22:33;;;;;;;;;6.50;6.50;;;;;;;;2;279082831;279082831;-76
2022/04/08 22:30:49;;;;;;;;;4.50;4.50;;;;;;;;2;234068628;234068628;-76
2022/04/08 22:39:49;;;;;;;;;6.00;6.00;;;;;;;;2;279082637;279082637;-76
2022/04/08 22:48:04;;;;;;;;;6.00;6.00;;;;;;;;2;234071471;234071471;-75
2022/04/08 22:57:05;;;;;;;;;5.50;5.50;;;;;;;;2;279080174;279080174;-74
2022/04/08 23:05:20;;;;;;;;;10.50;5.50;;;;;;;;2;234070764;234070764;-75
2022/04/08 23:14:21;;;;;;;;;1.50;1.50;;;;;;;;2;279086628;279086628;-74
2022/04/08 23:22:37;;;;;;;;;2.00;2.00;;;;;;;;2;234071594;234071594;-75
2022/04/08 23:31:37;;;;;;;;;4.50;4.50;;;;;;;;2;279085251;279085251;-75
2022/04/08 23:39:53;;;;;;;;;5.00;5.00;;;;;;;;2;234072300;234072300;-75
2022/04/08 23:48:53;;;;;;;;;3.50;3.50;;;;;;;;2;279082933;279082933;-75
2022/04/08 23:57:08;;;;;;;;;5.00;5.00;;;;;;;;2;234073114;234073114;-75
